createdAt,value
2022-09-24T00:01:36.696Z,30.38
2022-09-24T00:04:12.520Z,30.08
2022-09-24T00:06:48.097Z,31.10
2022-09-24T00:09:23.028Z,31.50
2022-09-24T00:11:55.086Z,30.25
2022-09-24T00:14:27.015Z,29.65
2022-09-24T00:16:59.232Z,30.45
2022-09-24T00:19:31.155Z,30.70
2022-09-24T00:22:03.471Z,32.75
2022-09-24T00:24:53.757Z,32.17
2022-09-24T00:27:25.702Z,35.83
2022-09-24T00:29:57.617Z,33.00
2022-09-24T00:32:29.571Z,31.55
2022-09-24T00:35:01.633Z,32.33
2022-09-24T00:37:33.646Z,33.30
2022-09-24T00:40:06.382Z,32.35
2022-09-24T00:42:38.331Z,32.20
2022-09-24T00:45:11.030Z,31.30
2022-09-24T00:47:44.931Z,33.55
2022-09-24T00:50:22.603Z,31.33
2022-09-24T00:53:00.418Z,30.95
2022-09-24T00:55:34.980Z,32.17
2022-09-24T00:58:08.791Z,32.78
2022-09-24T01:00:45.584Z,30.88
2022-09-24T01:03:24.816Z,30.15
2022-09-24T01:05:57.118Z,30.48
2022-09-24T01:08:29.046Z,29.42
2022-09-24T01:11:37.994Z,30.48
2022-09-24T01:15:13.040Z,30.20
2022-09-24T01:18:06.646Z,28.45
2022-09-24T01:20:56.165Z,30.02
2022-09-24T01:24:05.550Z,27.97
2022-09-24T01:26:45.610Z,30.77
2022-09-24T01:29:33.878Z,28.63
2022-09-24T01:32:38.226Z,29.88
2022-09-24T01:35:29.311Z,30.40
2022-09-24T01:38:16.742Z,28.05
2022-09-24T01:40:51.125Z,31.15
2022-09-24T01:43:27.364Z,34.85
2022-09-24T01:46:06.491Z,30.65
2022-09-24T01:48:39.204Z,33.55
2022-09-24T01:51:28.041Z,32.38
2022-09-24T01:54:15.664Z,32.05
2022-09-24T01:57:00.725Z,31.23
2022-09-24T01:59:39.246Z,32.72
2022-09-24T02:02:30.844Z,33.83
2022-09-24T02:05:15.121Z,30.50
2022-09-24T02:08:21.417Z,31.73
2022-09-24T02:11:08.752Z,33.63
2022-09-24T02:13:56.761Z,34.83
2022-09-24T02:16:35.712Z,35.08
2022-09-24T02:19:14.538Z,38.42
2022-09-24T02:21:47.447Z,35.88
2022-09-24T02:24:26.011Z,34.47
2022-09-24T02:26:57.997Z,34.75
2022-09-24T02:29:29.985Z,33.28
2022-09-24T02:32:03.729Z,32.72
2022-09-24T02:34:46.423Z,33.85
2022-09-24T02:37:20.423Z,34.28
2022-09-24T02:39:52.500Z,34.70
2022-09-24T02:42:24.613Z,33.75
2022-09-24T02:44:57.553Z,31.02
2022-09-24T02:47:29.602Z,33.63
2022-09-24T02:50:01.743Z,34.65
2022-09-24T02:52:33.710Z,33.55
2022-09-24T02:55:05.934Z,34.15
2022-09-24T02:57:37.918Z,36.28
2022-09-24T03:00:10.977Z,37.33
2022-09-24T03:02:43.603Z,37.38
2022-09-24T03:05:18.306Z,38.22
2022-09-24T03:07:51.662Z,37.88
2022-09-24T03:10:24.610Z,35.78
2022-09-24T03:12:56.896Z,34.03
2022-09-24T03:15:29.858Z,34.10
2022-09-24T03:18:01.775Z,32.60
2022-09-24T03:20:33.697Z,29.98
2022-09-24T03:23:05.814Z,30.55
2022-09-24T03:25:37.803Z,29.23
2022-09-24T03:28:09.731Z,28.48
2022-09-24T03:31:00.189Z,26.90
2022-09-24T03:33:40.437Z,28.75
2022-09-24T03:36:12.269Z,27.95
2022-09-24T03:38:45.904Z,28.90
2022-09-24T03:41:18.619Z,27.70
2022-09-24T03:43:50.675Z,28.20
2022-09-24T03:46:25.043Z,28.33
2022-09-24T03:48:59.368Z,27.02
2022-09-24T03:51:31.310Z,28.02
2022-09-24T03:54:03.385Z,26.55
2022-09-24T03:56:35.350Z,28.73
2022-09-24T03:59:07.329Z,26.67
2022-09-24T04:01:39.479Z,27.70
2022-09-24T04:04:14.506Z,28.52
2022-09-24T04:06:46.494Z,28.10
2022-09-24T04:09:18.386Z,28.88
2022-09-24T04:11:52.612Z,29.63
2022-09-24T04:14:24.645Z,30.67
2022-09-24T04:16:56.691Z,28.15
2022-09-24T04:19:29.448Z,28.30
2022-09-24T04:22:01.487Z,29.45
2022-09-24T04:24:33.380Z,26.80
2022-09-24T04:27:05.314Z,26.45
2022-09-24T04:29:37.241Z,29.17
2022-09-24T04:32:09.206Z,31.20
2022-09-24T04:34:41.146Z,29.85
2022-09-24T04:37:13.101Z,29.67
2022-09-24T04:39:45.041Z,30.10
2022-09-24T04:42:18.733Z,30.90
2022-09-24T04:44:55.337Z,31.52
2022-09-24T04:47:28.000Z,31.95
2022-09-24T04:50:00.479Z,31.20
2022-09-24T04:52:33.395Z,30.73
2022-09-24T04:55:06.202Z,32.47
2022-09-24T04:57:38.184Z,31.20
2022-09-24T05:00:15.472Z,33.30
2022-09-24T05:02:47.807Z,33.90
2022-09-24T05:05:19.848Z,32.63
2022-09-24T05:07:52.862Z,36.67
2022-09-24T05:10:29.811Z,36.50
2022-09-24T05:13:02.350Z,32.45
2022-09-24T05:15:34.314Z,36.97
2022-09-24T05:18:06.406Z,36.10
2022-09-24T05:20:38.354Z,35.67
2022-09-24T05:23:10.391Z,35.85
2022-09-24T05:26:00.651Z,37.47
2022-09-24T05:28:33.295Z,37.88
2022-09-24T05:31:05.425Z,40.45
2022-09-24T05:33:38.045Z,39.75
2022-09-24T05:36:09.950Z,40.08
2022-09-24T05:38:42.057Z,38.83
2022-09-24T05:41:14.341Z,38.20
2022-09-24T05:43:46.355Z,41.05
2022-09-24T05:46:18.376Z,41.35
2022-09-24T05:48:50.411Z,42.45
2022-09-24T05:51:22.682Z,43.28
2022-09-24T05:53:54.636Z,41.05
2022-09-24T05:56:26.537Z,40.97
2022-09-24T05:58:59.066Z,45.50
2022-09-24T06:01:31.120Z,41.35
2022-09-24T06:04:07.881Z,43.67
2022-09-24T06:06:40.859Z,43.35
2022-09-24T06:09:13.088Z,42.20
2022-09-24T06:11:45.913Z,44.78
2022-09-24T06:14:17.866Z,43.03
2022-09-24T06:16:49.765Z,43.13
2022-09-24T06:19:21.707Z,39.53
2022-09-24T06:21:53.626Z,43.33
2022-09-24T06:24:25.565Z,42.05
2022-09-24T06:26:58.435Z,43.15
2022-09-24T06:29:30.380Z,43.63
2022-09-24T06:32:02.565Z,44.10
2022-09-24T06:34:34.542Z,44.55
2022-09-24T06:37:06.460Z,42.53
2022-09-24T06:39:38.382Z,44.63
2022-09-24T06:42:11.821Z,40.75
2022-09-24T06:44:43.774Z,41.58
2022-09-24T06:47:15.669Z,38.60
2022-09-24T06:49:48.292Z,42.80
2022-09-24T06:52:20.669Z,42.65
2022-09-24T06:54:55.979Z,41.35
2022-09-24T06:57:29.043Z,41.90
2022-09-24T07:00:01.293Z,40.47
2022-09-24T07:02:33.373Z,40.28
2022-09-24T07:05:06.636Z,41.17
2022-09-24T07:07:38.607Z,40.58
2022-09-24T07:10:11.229Z,40.35
2022-09-24T07:12:43.531Z,43.50
2022-09-24T07:15:15.594Z,43.50
2022-09-24T07:17:47.778Z,43.08
2022-09-24T07:20:19.737Z,42.90
2022-09-24T07:22:51.697Z,44.30
2022-09-24T07:25:23.956Z,44.20
2022-09-24T07:27:55.887Z,45.65
2022-09-24T07:30:27.880Z,40.40
2022-09-24T07:32:59.879Z,44.83
2022-09-24T07:35:32.051Z,40.90
2022-09-24T07:38:07.406Z,41.97
2022-09-24T07:40:39.657Z,42.38
2022-09-24T07:43:14.224Z,45.95
2022-09-24T07:45:47.629Z,45.10
2022-09-24T07:48:19.953Z,45.33
2022-09-24T07:50:52.149Z,49.17
2022-09-24T07:53:24.525Z,48.63
2022-09-24T07:55:59.574Z,45.78
2022-09-24T07:58:31.600Z,45.75
2022-09-24T08:01:03.617Z,47.00
2022-09-24T08:03:35.575Z,44.85
2022-09-24T08:06:07.885Z,43.33
2022-09-24T08:08:40.489Z,44.70
2022-09-24T08:11:13.528Z,45.05
2022-09-24T08:13:46.152Z,44.40
2022-09-24T08:16:21.295Z,43.78
2022-09-24T08:18:56.323Z,45.53
2022-09-24T08:21:29.199Z,38.78
2022-09-24T08:24:01.455Z,43.95
2022-09-24T08:26:33.529Z,46.42
2022-09-24T08:29:05.441Z,47.25
2022-09-24T08:31:37.778Z,45.50
2022-09-24T08:34:09.815Z,45.92
2022-09-24T08:36:43.181Z,46.15
2022-09-24T08:39:15.806Z,47.17
2022-09-24T08:41:56.093Z,45.75
2022-09-24T08:44:59.916Z,45.03
2022-09-24T08:47:51.832Z,46.92
2022-09-24T08:50:34.420Z,49.78
2022-09-24T08:53:48.029Z,44.95
2022-09-24T08:56:26.844Z,44.63
2022-09-24T08:59:14.468Z,48.50
2022-09-24T09:02:10.079Z,48.55
2022-09-24T09:05:19.015Z,45.05
2022-09-24T09:08:41.410Z,47.78
2022-09-24T09:11:11.211Z,46.13
2022-09-24T09:13:58.584Z,49.08
2022-09-24T09:16:37.492Z,48.55
2022-09-24T09:19:14.683Z,49.22
2022-09-24T09:21:54.770Z,51.03
2022-09-24T09:24:49.718Z,52.15
2022-09-24T09:27:22.133Z,48.63
2022-09-24T09:29:59.819Z,47.90
2022-09-24T09:32:58.100Z,47.75
2022-09-24T09:36:01.895Z,46.47
2022-09-24T09:39:18.184Z,45.05
2022-09-24T09:42:20.622Z,45.17
2022-09-24T09:44:53.791Z,44.40
2022-09-24T09:47:39.956Z,44.65
2022-09-24T09:50:40.886Z,45.05
2022-09-24T09:53:32.849Z,45.15
2022-09-24T09:56:11.113Z,45.22
2022-09-24T09:58:48.091Z,47.25
2022-09-24T10:01:20.111Z,47.13
2022-09-24T10:03:52.411Z,46.08
2022-09-24T10:06:33.692Z,45.78
2022-09-24T10:09:19.918Z,43.90
2022-09-24T10:11:52.174Z,45.10
2022-09-24T10:14:24.444Z,62.25
2022-09-24T10:16:56.488Z,47.05
2022-09-24T10:19:29.246Z,41.38
2022-09-24T10:22:16.830Z,42.85
2022-09-24T10:24:49.986Z,43.17
2022-09-24T10:27:30.671Z,45.75
2022-09-24T10:30:31.923Z,46.17
2022-09-24T10:33:06.475Z,46.50
2022-09-24T10:35:38.817Z,43.63
2022-09-24T10:38:21.499Z,41.92
2022-09-24T10:40:53.465Z,39.70
2022-09-24T10:43:25.563Z,41.67
2022-09-24T10:46:28.717Z,41.10
2022-09-24T10:49:25.465Z,39.75
2022-09-24T10:52:38.705Z,37.97
2022-09-24T10:55:57.441Z,39.83
2022-09-24T10:59:16.604Z,38.63
2022-09-24T11:02:17.498Z,36.70
2022-09-24T11:05:00.584Z,37.85
2022-09-24T11:07:58.023Z,36.58
2022-09-24T11:10:52.650Z,36.67
2022-09-24T11:14:06.065Z,36.20
2022-09-24T11:17:17.546Z,35.25
2022-09-24T11:20:27.251Z,34.70
2022-09-24T11:23:21.681Z,37.35
2022-09-24T11:26:51.793Z,36.80
2022-09-24T11:30:06.877Z,34.90
2022-09-24T11:33:03.307Z,33.28
2022-09-24T11:36:11.170Z,36.60
2022-09-24T11:38:59.820Z,35.03
2022-09-24T11:42:08.742Z,34.47
2022-09-24T11:45:30.420Z,33.78
2022-09-24T11:48:35.370Z,31.25
2022-09-24T11:51:21.350Z,32.22
2022-09-24T11:54:02.482Z,32.88
2022-09-24T11:56:43.588Z,35.03
2022-09-24T11:59:23.236Z,33.63
2022-09-24T12:02:21.495Z,34.33
2022-09-24T12:05:22.120Z,30.40
2022-09-24T12:08:09.212Z,32.03
2022-09-24T12:11:13.904Z,30.50
2022-09-24T12:13:53.933Z,30.13
2022-09-24T12:16:33.744Z,33.55
2022-09-24T12:19:50.724Z,31.13
2022-09-24T12:22:24.232Z,33.47
2022-09-24T12:25:00.348Z,31.75
2022-09-24T12:27:36.576Z,30.85
2022-09-24T12:31:09.993Z,30.83
2022-09-24T12:34:27.798Z,29.73
2022-09-24T12:37:21.047Z,30.42
2022-09-24T12:40:03.623Z,31.60
2022-09-24T12:42:42.436Z,32.80
2022-09-24T12:45:22.343Z,32.75
2022-09-24T12:48:00.164Z,31.30
2022-09-24T12:50:35.706Z,28.75
2022-09-24T12:53:25.097Z,29.77
2022-09-24T12:56:01.935Z,28.60
2022-09-24T12:58:45.228Z,30.85
2022-09-24T13:01:23.217Z,30.17
2022-09-24T13:04:21.624Z,29.42
2022-09-24T13:06:54.299Z,28.38
2022-09-24T13:09:40.682Z,26.92
2022-09-24T13:12:15.509Z,26.27
2022-09-24T13:15:04.406Z,26.08
2022-09-24T13:17:40.139Z,25.48
2022-09-24T13:20:27.739Z,25.38
2022-09-24T13:23:51.936Z,23.58
2022-09-24T13:26:33.765Z,24.10
2022-09-24T13:29:23.353Z,24.83
2022-09-24T13:32:02.959Z,26.10
2022-09-24T13:34:36.287Z,26.30
2022-09-24T13:37:23.267Z,25.15
2022-09-24T13:40:07.321Z,24.02
2022-09-24T13:42:52.909Z,26.08
2022-09-24T13:45:25.474Z,25.80
2022-09-24T13:48:05.747Z,25.77
2022-09-24T13:50:45.781Z,25.83
2022-09-24T13:53:31.542Z,27.08
2022-09-24T13:56:12.933Z,29.00
2022-09-24T13:58:45.122Z,29.70
2022-09-24T14:01:30.164Z,28.08
2022-09-24T14:04:15.827Z,28.80
2022-09-24T14:07:02.055Z,27.88
2022-09-24T14:09:36.624Z,26.83
2022-09-24T14:12:22.125Z,28.02
2022-09-24T14:14:58.331Z,30.33
2022-09-24T14:17:30.391Z,29.08
2022-09-24T14:20:02.623Z,29.65
2022-09-24T14:22:39.692Z,30.10
2022-09-24T14:25:24.694Z,29.45
2022-09-24T14:28:00.499Z,29.77
2022-09-24T14:30:40.888Z,28.65
2022-09-24T14:35:54.635Z,32.80
2022-09-24T14:38:34.462Z,32.97
2022-09-24T14:41:23.170Z,31.85
2022-09-24T14:44:22.222Z,26.42
2022-09-24T14:46:58.785Z,27.63
2022-09-24T14:49:44.130Z,29.38
2022-09-24T14:52:37.781Z,26.63
2022-09-24T14:55:20.649Z,25.77
2022-09-24T14:57:56.930Z,24.65
2022-09-24T15:00:51.501Z,24.50
2022-09-24T15:03:40.126Z,22.60
2022-09-24T15:06:23.900Z,27.45
2022-09-24T15:09:04.034Z,25.83
2022-09-24T15:11:37.701Z,26.17
2022-09-24T15:14:27.559Z,27.63
2022-09-24T15:17:21.072Z,26.20
2022-09-24T15:19:54.893Z,24.60
2022-09-24T15:22:28.952Z,25.73
2022-09-24T15:25:02.266Z,25.52
2022-09-24T15:27:39.248Z,26.42
2022-09-24T15:30:19.745Z,24.50
2022-09-24T15:32:52.501Z,24.20
2022-09-24T15:35:24.609Z,25.70
2022-09-24T15:37:58.745Z,25.65
2022-09-24T15:40:33.931Z,24.77
2022-09-24T15:43:15.816Z,24.13
2022-09-24T15:45:48.158Z,23.90
2022-09-24T15:48:20.118Z,23.95
2022-09-24T15:50:52.169Z,25.40
2022-09-24T15:53:26.977Z,23.90
2022-09-24T15:56:01.831Z,23.23
2022-09-24T15:58:34.454Z,25.48
2022-09-24T16:01:06.472Z,22.65
2022-09-24T16:03:38.451Z,22.73
2022-09-24T16:06:12.258Z,22.75
2022-09-24T16:08:44.236Z,23.10
2022-09-24T16:11:16.605Z,23.35
2022-09-24T16:13:50.790Z,25.55
2022-09-24T16:16:22.732Z,24.58
2022-09-24T16:18:54.720Z,23.30
2022-09-24T16:21:26.790Z,22.83
2022-09-24T16:24:00.314Z,22.80
2022-09-24T16:26:32.345Z,24.33
2022-09-24T16:29:06.262Z,20.85
2022-09-24T16:31:38.641Z,22.45
2022-09-24T16:34:13.853Z,21.50
2022-09-24T16:36:45.978Z,21.85
2022-09-24T16:39:18.018Z,21.75
2022-09-24T16:41:51.209Z,19.65
2022-09-24T16:44:23.149Z,22.65
2022-09-24T16:46:55.121Z,23.42
2022-09-24T16:49:27.861Z,21.77
2022-09-24T16:52:00.230Z,21.88
2022-09-24T16:54:32.872Z,21.23
2022-09-24T16:57:06.368Z,22.92
2022-09-24T16:59:38.326Z,22.77
2022-09-24T17:02:12.732Z,22.30
2022-09-24T17:04:44.654Z,22.95
2022-09-24T17:07:16.639Z,23.25
2022-09-24T17:10:06.809Z,21.90
2022-09-24T17:12:46.382Z,25.50
2022-09-24T17:15:20.732Z,22.35
2022-09-24T17:17:52.763Z,22.25
2022-09-24T17:20:24.719Z,21.95
2022-09-24T17:22:56.623Z,19.48
2022-09-24T17:25:28.694Z,20.70
2022-09-24T17:28:02.182Z,21.83
2022-09-24T17:30:34.158Z,19.58
2022-09-24T17:33:25.282Z,19.63
2022-09-24T17:36:01.825Z,18.67
2022-09-24T17:38:34.289Z,18.80
2022-09-24T17:41:10.554Z,19.05
2022-09-24T17:43:42.746Z,19.60
2022-09-24T17:46:18.485Z,16.00
2022-09-24T17:48:53.791Z,16.42
2022-09-24T17:51:33.335Z,16.38
2022-09-24T17:54:09.736Z,15.33
2022-09-24T17:56:42.386Z,12.15
2022-09-24T17:59:15.024Z,9.85
2022-09-24T18:01:47.183Z,7.57
2022-09-24T18:04:21.293Z,6.28
2022-09-24T18:06:53.211Z,5.53
2022-09-24T18:09:25.195Z,5.88
2022-09-24T18:11:58.205Z,5.75
2022-09-24T18:14:30.143Z,7.20
2022-09-24T18:17:02.552Z,8.60
2022-09-24T18:19:34.495Z,7.80
2022-09-24T18:22:09.201Z,7.93
2022-09-24T18:24:42.123Z,8.30
2022-09-24T18:27:16.078Z,7.57
2022-09-24T18:29:48.071Z,8.75
2022-09-24T18:32:20.479Z,10.68
2022-09-24T18:34:53.062Z,9.73
2022-09-24T18:37:25.238Z,9.13
2022-09-24T18:39:57.479Z,10.65
2022-09-24T18:42:29.560Z,12.27
2022-09-24T18:45:03.361Z,13.25
2022-09-24T18:47:38.386Z,12.40
2022-09-24T18:50:10.514Z,13.80
2022-09-24T18:52:42.571Z,13.57
2022-09-24T18:55:14.589Z,17.33
2022-09-24T18:57:46.556Z,17.75
2022-09-24T19:00:37.334Z,16.42
2022-09-24T19:03:09.328Z,16.25
2022-09-24T19:05:41.321Z,14.63
2022-09-24T19:08:14.401Z,14.77
2022-09-24T19:10:47.746Z,14.90
2022-09-24T19:13:25.431Z,14.20
2022-09-24T19:16:03.377Z,13.77
2022-09-24T19:18:35.775Z,14.32
2022-09-24T19:21:14.250Z,15.40
2022-09-24T19:23:49.762Z,15.43
2022-09-24T19:26:28.567Z,17.05
2022-09-24T19:29:01.054Z,18.98
2022-09-24T19:31:42.558Z,16.67
2022-09-24T19:34:14.677Z,17.13
2022-09-24T19:36:47.025Z,18.33
2022-09-24T19:39:19.067Z,18.00
2022-09-24T19:41:53.024Z,16.92
2022-09-24T19:44:25.084Z,15.98
2022-09-24T19:46:57.006Z,14.75
2022-09-24T19:49:29.097Z,13.95
2022-09-24T19:52:01.188Z,13.35
2022-09-24T19:54:33.066Z,13.20
2022-09-24T19:57:05.006Z,13.02
2022-09-24T19:59:36.979Z,11.52
2022-09-24T20:02:11.594Z,10.60
2022-09-24T20:04:43.549Z,9.30
2022-09-24T20:07:17.897Z,9.85
2022-09-24T20:09:50.034Z,9.50
2022-09-24T20:12:22.114Z,9.20
2022-09-24T20:14:54.039Z,8.23
2022-09-24T20:17:26.947Z,7.72
2022-09-24T20:20:00.942Z,9.05
2022-09-24T20:22:33.613Z,8.45
2022-09-24T20:25:06.428Z,8.85
2022-09-24T20:27:53.350Z,9.55
2022-09-24T20:30:25.277Z,8.77
2022-09-24T20:32:57.212Z,9.25
2022-09-24T20:35:29.258Z,9.82
2022-09-24T20:38:01.373Z,10.85
2022-09-24T20:40:36.494Z,11.57
2022-09-24T20:43:08.763Z,11.98
2022-09-24T20:45:41.508Z,12.98
2022-09-24T20:48:13.439Z,12.82
2022-09-24T20:50:45.351Z,14.07
2022-09-24T20:53:17.352Z,13.75
2022-09-24T20:55:49.287Z,14.45
2022-09-24T20:58:21.337Z,15.40
2022-09-24T21:00:55.785Z,15.32
2022-09-24T21:03:46.114Z,13.52
2022-09-24T21:06:22.990Z,14.75
2022-09-24T21:08:55.111Z,13.73
2022-09-24T21:11:27.191Z,13.60
2022-09-24T21:14:03.204Z,13.30
2022-09-24T21:16:35.571Z,14.13
2022-09-24T21:19:08.090Z,13.30
2022-09-24T21:21:41.225Z,12.70
2022-09-24T21:24:15.628Z,13.35
2022-09-24T21:26:47.713Z,13.95
2022-09-24T21:29:23.647Z,14.38
2022-09-24T21:31:55.608Z,13.57
2022-09-24T21:34:27.795Z,12.32
2022-09-24T21:37:00.145Z,14.40
2022-09-24T21:39:32.132Z,14.13
2022-09-24T21:42:04.166Z,14.70
2022-09-24T21:44:36.418Z,15.40
2022-09-24T21:47:08.663Z,15.07
2022-09-24T21:49:41.005Z,15.07
2022-09-24T21:52:12.937Z,15.85
2022-09-24T21:54:44.854Z,15.25
2022-09-24T21:57:16.784Z,15.18
2022-09-24T22:00:10.492Z,15.98
2022-09-24T22:02:45.433Z,17.13
2022-09-24T22:05:19.884Z,16.95
2022-09-24T22:07:51.884Z,18.00
2022-09-24T22:10:24.057Z,18.88
2022-09-24T22:12:56.270Z,18.73
2022-09-24T22:15:28.199Z,19.55
2022-09-24T22:18:01.140Z,18.15
2022-09-24T22:20:33.121Z,19.85
2022-09-24T22:23:05.034Z,21.35
2022-09-24T22:25:37.902Z,21.42
2022-09-24T22:28:09.900Z,20.60
2022-09-24T22:30:45.235Z,21.15
2022-09-24T22:33:37.329Z,21.35
2022-09-24T22:36:09.643Z,21.80
2022-09-24T22:38:41.868Z,21.77
2022-09-24T22:41:13.791Z,21.83
2022-09-24T22:43:46.089Z,22.55
2022-09-24T22:46:19.133Z,22.13
2022-09-24T22:48:51.127Z,22.98
2022-09-24T22:51:27.378Z,23.52
2022-09-24T22:54:00.299Z,21.52
2022-09-24T22:56:32.409Z,21.95
2022-09-24T22:59:05.169Z,20.98
2022-09-24T23:01:43.463Z,22.95
2022-09-24T23:04:15.489Z,23.30
2022-09-24T23:06:47.453Z,22.38
2022-09-24T23:09:20.704Z,19.25
2022-09-24T23:11:53.485Z,20.60
2022-09-24T23:14:25.428Z,19.38
2022-09-24T23:16:58.812Z,20.88
2022-09-24T23:19:48.774Z,18.83
2022-09-24T23:22:22.398Z,18.05
2022-09-24T23:24:54.342Z,17.85
2022-09-24T23:27:27.019Z,18.25
2022-09-24T23:30:00.642Z,17.83
2022-09-24T23:32:32.606Z,17.38
2022-09-24T23:35:05.105Z,17.10
2022-09-24T23:37:37.065Z,16.92
2022-09-24T23:40:09.981Z,17.25
2022-09-24T23:42:41.949Z,15.45
2022-09-24T23:45:13.954Z,14.82
2022-09-24T23:47:45.900Z,13.38
2022-09-24T23:50:17.778Z,13.65
2022-09-24T23:52:49.691Z,12.55
2022-09-24T23:55:21.745Z,11.23
2022-09-24T23:57:53.664Z,11.30
